Time;durP1;ratioP1;P1;durP2;ratioP2;P2;SDS_P1;SDS_P2;PMS_P1;PMS_P2;Temp;Humidity;BMP_temperature;BMP_pressure;BME280_temperature;BME280_humidity;BME280_pressure;Samples;Min_cycle;Max_cycle;Signal;HPM_P1;HPM_P2
2024/04/15 00:00:42;;;;;;;3.10;1.23;;;16.90;68.90;;;;;;5465765;26;20041;-39
2024/04/15 00:03:08;;;;;;;2.70;1.23;;;16.80;68.70;;;;;;5463616;26;20002;-39
2024/04/15 00:05:34;;;;;;;4.82;1.40;;;16.80;68.70;;;;;;5473030;26;20089;-39
2024/04/15 00:08:00;;;;;;;2.63;1.20;;;16.80;68.80;;;;;;5467197;26;20052;-39
2024/04/15 00:10:26;;;;;;;1.77;1.20;;;16.70;68.80;;;;;;5472938;26;20006;-40
2024/04/15 00:12:51;;;;;;;2.53;1.30;;;16.70;68.80;;;;;;5474113;26;20099;-39
2024/04/15 00:15:17;;;;;;;1.80;1.40;;;16.70;68.70;;;;;;5475420;26;20001;-39
2024/04/15 00:17:43;;;;;;;4.18;1.60;;;16.70;68.80;;;;;;5465256;26;20015;-41
2024/04/15 00:20:09;;;;;;;2.00;1.27;;;16.70;68.80;;;;;;5484290;26;19999;-40
2024/04/15 00:22:35;;;;;;;1.85;1.23;;;16.70;68.80;;;;;;5467080;26;20003;-39
2024/04/15 00:25:01;;;;;;;2.45;1.35;;;16.60;68.80;;;;;;5468501;26;19994;-39
2024/04/15 00:27:27;;;;;;;3.80;1.83;;;16.60;68.80;;;;;;5469028;26;20035;-39
2024/04/15 00:29:53;;;;;;;2.30;1.40;;;16.60;68.80;;;;;;5464202;26;20315;-39
2024/04/15 00:32:18;;;;;;;2.97;1.40;;;16.60;68.80;;;;;;5462982;26;19994;-39
2024/04/15 00:34:44;;;;;;;3.40;1.50;;;16.50;68.80;;;;;;5490264;26;20005;-39
2024/04/15 00:37:10;;;;;;;2.90;1.40;;;16.50;68.80;;;;;;5479841;26;20080;-39
2024/04/15 00:39:36;;;;;;;4.53;1.67;;;16.50;68.90;;;;;;5483017;26;20044;-39
2024/04/15 00:42:02;;;;;;;4.40;1.52;;;16.50;68.80;;;;;;5468842;26;20006;-40
2024/04/15 00:44:32;;;;;;;2.97;1.50;;;16.40;68.80;;;;;;5474439;26;20014;-40
2024/04/15 00:46:58;;;;;;;2.72;1.50;;;16.50;68.90;;;;;;5457737;26;20440;-40
2024/04/15 00:49:24;;;;;;;2.42;1.50;;;16.40;69.00;;;;;;5477255;26;20006;-40
2024/04/15 00:51:49;;;;;;;3.63;1.52;;;16.40;69.00;;;;;;5478772;26;20006;-40
2024/04/15 00:54:15;;;;;;;2.85;1.67;;;16.30;69.10;;;;;;5477689;26;20001;-40
2024/04/15 00:56:41;;;;;;;2.15;1.65;;;16.40;69.20;;;;;;5474029;26;19998;-40
2024/04/15 00:59:09;;;;;;;3.03;1.52;;;16.30;69.10;;;;;;5468688;26;20012;-40
2024/04/15 01:01:36;;;;;;;3.40;1.67;;;16.30;69.20;;;;;;5481807;26;20638;-40
2024/04/15 01:04:02;;;;;;;2.95;1.60;;;16.30;69.20;;;;;;5473062;26;20022;-39
2024/04/15 01:06:28;;;;;;;4.05;1.77;;;16.30;69.30;;;;;;5472889;26;20018;-38
2024/04/15 01:08:53;;;;;;;3.90;1.90;;;16.20;69.20;;;;;;5477047;25;20005;-39
2024/04/15 01:11:19;;;;;;;3.22;1.80;;;16.20;69.30;;;;;;5476480;26;20062;-39
2024/04/15 01:13:45;;;;;;;3.35;2.10;;;16.20;69.20;;;;;;5475173;26;20013;-39
2024/04/15 01:16:11;;;;;;;1.90;1.60;;;16.10;69.20;;;;;;5475384;26;19994;-39
2024/04/15 01:18:37;;;;;;;3.70;1.70;;;16.10;69.20;;;;;;5470590;26;20007;-39
2024/04/15 01:21:03;;;;;;;4.30;2.47;;;16.10;69.30;;;;;;5480741;26;20776;-41
2024/04/15 01:23:38;;;;;;;3.15;1.92;;;16.00;69.30;;;;;;5458956;26;20002;-39
2024/04/15 01:26:03;;;;;;;5.93;2.20;;;16.10;69.40;;;;;;5479595;26;19994;-40
2024/04/15 01:28:29;;;;;;;2.95;1.83;;;16.00;69.40;;;;;;5471111;26;20026;-39
2024/04/15 01:30:55;;;;;;;3.30;2.08;;;16.00;69.40;;;;;;5464394;26;20458;-39
2024/04/15 01:33:20;;;;;;;3.08;1.80;;;16.00;69.50;;;;;;5462965;26;20002;-39
2024/04/15 01:35:46;;;;;;;4.28;1.80;;;16.00;69.50;;;;;;5478198;26;20082;-40
2024/04/15 01:38:12;;;;;;;3.67;1.88;;;15.90;69.40;;;;;;5473024;26;20191;-39
2024/04/15 01:40:38;;;;;;;3.90;2.13;;;15.90;69.50;;;;;;5480135;26;20078;-39
2024/04/15 01:43:03;;;;;;;3.47;2.28;;;15.90;69.50;;;;;;5471519;26;20007;-39
2024/04/15 01:45:29;;;;;;;4.22;2.08;;;15.90;69.50;;;;;;5478599;26;20624;-40
2024/04/15 01:47:55;;;;;;;2.97;1.83;;;15.80;69.50;;;;;;5467287;26;20100;-41
2024/04/15 01:50:22;;;;;;;4.13;2.30;;;15.80;69.60;;;;;;5460851;26;20482;-40
2024/04/15 01:52:48;;;;;;;4.03;2.30;;;15.80;69.60;;;;;;5466520;26;20772;-40
2024/04/15 01:55:13;;;;;;;3.20;2.13;;;15.80;69.60;;;;;;5464519;26;20029;-40
2024/04/15 01:57:39;;;;;;;4.10;2.35;;;15.80;69.60;;;;;;5475010;26;20039;-40
2024/04/15 02:00:06;;;;;;;2.75;1.90;;;15.70;69.60;;;;;;5482274;26;20008;-40
2024/04/15 02:02:37;;;;;;;4.43;2.08;;;15.70;69.60;;;;;;5453894;26;20002;-41
2024/04/15 02:05:05;;;;;;;4.15;2.20;;;15.70;69.70;;;;;;5463435;26;20010;-40
2024/04/15 02:07:31;;;;;;;4.38;2.20;;;15.70;69.70;;;;;;5467535;26;20076;-40
2024/04/15 02:09:57;;;;;;;5.25;2.10;;;15.70;69.80;;;;;;5464113;26;19995;-41
2024/04/15 02:12:23;;;;;;;3.47;2.28;;;15.70;69.80;;;;;;5465947;26;20011;-40
2024/04/15 02:14:48;;;;;;;4.43;2.17;;;15.60;69.80;;;;;;5462186;26;20446;-40
2024/04/15 02:17:14;;;;;;;4.28;2.10;;;15.60;69.70;;;;;;5467134;26;20180;-40
2024/04/15 02:19:40;;;;;;;2.83;1.92;;;15.60;69.80;;;;;;5473410;26;20020;-40
2024/04/15 02:22:06;;;;;;;3.92;2.25;;;15.60;69.80;;;;;;5476586;26;20014;-42
2024/04/15 02:24:31;;;;;;;4.80;2.45;;;15.60;69.90;;;;;;5474900;26;20043;-39
2024/04/15 02:26:57;;;;;;;4.25;2.22;;;15.50;69.90;;;;;;5470308;26;20017;-39
2024/04/15 02:29:23;;;;;;;3.50;2.20;;;15.50;70.00;;;;;;5467821;26;19995;-38
2024/04/15 02:31:48;;;;;;;2.75;2.00;;;15.50;70.00;;;;;;5482835;26;20009;-39
2024/04/15 02:34:17;;;;;;;4.00;2.25;;;15.50;70.60;;;;;;5483672;26;19998;-40
2024/04/15 02:36:43;;;;;;;4.20;2.15;;;15.50;70.00;;;;;;5468682;26;20019;-40
2024/04/15 02:39:10;;;;;;;4.57;2.58;;;15.40;70.10;;;;;;5451210;26;20013;-39
2024/04/15 02:41:35;;;;;;;3.58;2.20;;;15.40;70.10;;;;;;5457373;26;20023;-40
2024/04/15 02:44:01;;;;;;;3.42;2.03;;;15.40;70.20;;;;;;5482841;26;19995;-40
2024/04/15 02:46:27;;;;;;;3.53;2.20;;;15.40;70.20;;;;;;5482104;26;20013;-40
2024/04/15 02:48:53;;;;;;;3.75;2.30;;;15.40;70.20;;;;;;5490068;26;19994;-39
2024/04/15 02:51:18;;;;;;;3.38;2.20;;;15.40;70.20;;;;;;5487709;26;20006;-40
2024/04/15 02:53:44;;;;;;;3.92;2.28;;;15.40;70.20;;;;;;5472374;26;20003;-40
2024/04/15 02:56:10;;;;;;;4.55;2.42;;;15.40;70.30;;;;;;5477287;26;20438;-43
2024/04/15 02:58:36;;;;;;;4.97;2.70;;;15.30;70.30;;;;;;5491103;26;19998;-39
2024/04/15 03:01:01;;;;;;;4.80;2.60;;;15.30;70.30;;;;;;5487583;26;20006;-38
2024/04/15 03:03:27;;;;;;;4.53;2.40;;;15.30;70.30;;;;;;5470170;26;20009;-39
2024/04/15 03:05:53;;;;;;;4.95;2.63;;;15.30;70.30;;;;;;5479275;26;20376;-39
2024/04/15 03:08:19;;;;;;;3.28;2.30;;;15.20;70.30;;;;;;5473158;26;19999;-40
2024/04/15 03:10:44;;;;;;;4.38;2.63;;;15.20;70.40;;;;;;5484697;26;19998;-40
2024/04/15 03:13:10;;;;;;;4.03;2.55;;;15.30;70.40;;;;;;5488195;26;20033;-40
2024/04/15 03:15:36;;;;;;;4.25;2.55;;;15.20;70.40;;;;;;5479225;26;20413;-40
2024/04/15 03:18:03;;;;;;;4.40;2.47;;;15.20;70.40;;;;;;5484176;26;19998;-39
2024/04/15 03:20:29;;;;;;;4.75;2.63;;;15.20;70.40;;;;;;5471653;26;19995;-39
2024/04/15 03:22:54;;;;;;;4.28;2.65;;;15.10;70.40;;;;;;5469815;26;19995;-39
2024/04/15 03:25:25;;;;;;;4.93;2.75;;;15.20;70.50;;;;;;5464787;26;19994;-40
2024/04/15 03:27:51;;;;;;;5.55;2.72;;;15.20;70.50;;;;;;5461982;26;20037;-39
2024/04/15 03:30:17;;;;;;;4.13;2.92;;;15.20;70.50;;;;;;5456870;26;20154;-38
2024/04/15 03:32:42;;;;;;;6.63;3.25;;;15.10;70.40;;;;;;5478549;26;19998;-39
2024/04/15 03:35:13;;;;;;;6.30;3.05;;;15.10;70.40;;;;;;5457317;26;20010;-39
2024/04/15 03:37:40;;;;;;;5.32;3.15;;;15.10;70.40;;;;;;5468673;26;20041;-39
2024/04/15 03:40:07;;;;;;;5.38;2.83;;;15.10;70.40;;;;;;5485582;26;20010;-39
2024/04/15 03:42:33;;;;;;;5.88;3.35;;;15.10;70.40;;;;;;5463348;26;19995;-39
2024/04/15 03:44:59;;;;;;;5.43;3.03;;;15.10;70.40;;;;;;5458752;26;20458;-39
2024/04/15 03:47:24;;;;;;;5.78;3.30;;;15.10;70.40;;;;;;5455547;26;20004;-40
2024/04/15 03:49:50;;;;;;;5.20;2.85;;;15.00;70.40;;;;;;5463644;26;19999;-40
2024/04/15 03:52:16;;;;;;;4.95;3.25;;;15.00;70.50;;;;;;5457091;26;20591;-39
2024/04/15 03:54:42;;;;;;;4.25;3.13;;;15.00;70.50;;;;;;5451551;26;20054;-40
2024/04/15 03:57:11;;;;;;;5.20;3.17;;;15.00;70.40;;;;;;5470000;26;20006;-40
2024/04/15 03:59:37;;;;;;;5.10;3.42;;;14.90;70.50;;;;;;5474479;26;19994;-39
2024/04/15 04:02:03;;;;;;;6.55;3.60;;;15.00;70.50;;;;;;5474097;26;20071;-39
2024/04/15 04:04:32;;;;;;;5.50;3.45;;;14.90;70.50;;;;;;5481953;26;19995;-40
2024/04/15 04:06:58;;;;;;;7.40;4.03;;;14.90;70.50;;;;;;5469868;26;20009;-40
2024/04/15 04:09:24;;;;;;;5.13;3.15;;;14.90;70.50;;;;;;5480698;26;20033;-39
2024/04/15 04:11:49;;;;;;;6.22;3.75;;;14.90;70.50;;;;;;5467140;26;19991;-41
2024/04/15 04:14:15;;;;;;;5.28;3.38;;;14.80;70.50;;;;;;5472760;26;20014;-44
2024/04/15 04:16:43;;;;;;;5.03;3.38;;;14.80;70.50;;;;;;5465118;26;20275;-40
2024/04/15 04:19:09;;;;;;;5.85;3.63;;;14.80;70.60;;;;;;5482363;26;20021;-40
2024/04/15 04:21:34;;;;;;;5.72;3.28;;;14.80;70.60;;;;;;5483877;26;19990;-40
2024/04/15 04:24:00;;;;;;;6.57;3.55;;;14.80;70.60;;;;;;5470446;26;19999;-40
2024/04/15 04:26:26;;;;;;;6.20;3.88;;;14.80;70.60;;;;;;5462683;26;20002;-40
2024/04/15 04:28:53;;;;;;;5.60;3.63;;;14.70;70.60;;;;;;5479952;26;20013;-40
2024/04/15 04:31:19;;;;;;;5.88;3.38;;;14.80;70.70;;;;;;5467695;26;20385;-40
2024/04/15 04:33:45;;;;;;;5.95;3.75;;;14.70;70.70;;;;;;5471870;26;19990;-39
2024/04/15 04:36:16;;;;;;;4.93;3.35;;;14.70;70.70;;;;;;5467333;26;20013;-39
2024/04/15 04:38:42;;;;;;;6.95;3.63;;;14.70;70.70;;;;;;5468722;26;20014;-38
2024/04/15 04:41:08;;;;;;;5.70;3.42;;;14.60;70.70;;;;;;5471704;26;20002;-39
2024/04/15 04:43:33;;;;;;;5.45;3.38;;;14.60;70.80;;;;;;5467232;26;20464;-39
2024/04/15 04:46:10;;;;;;;5.93;3.53;;;14.60;70.80;;;;;;5474736;26;20013;-39
2024/04/15 04:48:36;;;;;;;5.05;3.10;;;14.60;70.80;;;;;;5461751;26;20071;-38
2024/04/15 04:51:05;;;;;;;5.85;3.75;;;14.60;70.80;;;;;;5485679;26;19999;-37
2024/04/15 04:53:31;;;;;;;6.45;3.40;;;14.50;70.80;;;;;;5500604;26;20022;-38
2024/04/15 04:56:10;;;;;;;4.55;3.28;;;14.50;70.90;;;;;;5490863;26;20009;-37
2024/04/15 04:58:39;;;;;;;6.45;3.30;;;14.50;70.90;;;;;;5462425;26;20018;-38
2024/04/15 05:01:09;;;;;;;5.78;3.45;;;14.50;70.90;;;;;;5457902;26;20009;-38
2024/04/15 05:03:44;;;;;;;5.75;3.13;;;14.40;70.90;;;;;;5462896;26;20034;-38
2024/04/15 05:06:10;;;;;;;;;;;14.40;70.90;;;;;;5472202;26;20005;-38
2024/04/15 05:08:37;;;;;;;7.75;3.38;;;14.30;70.90;;;;;;5473621;26;21622;-37
2024/04/15 05:11:03;;;;;;;4.82;2.72;;;14.40;70.90;;;;;;5481167;26;20009;-37
2024/04/15 05:13:29;;;;;;;5.18;3.15;;;14.30;70.90;;;;;;5491629;26;20333;-38
2024/04/15 05:16:11;;;;;;;6.20;3.38;;;14.30;71.00;;;;;;5468200;26;19990;-44
2024/04/15 05:18:39;;;;;;;6.07;3.40;;;14.30;71.00;;;;;;5486186;26;19998;-38
2024/04/15 05:21:11;;;;;;;4.88;3.00;;;14.30;71.10;;;;;;5487708;26;20002;-38
2024/04/15 05:23:37;;;;;;;4.85;3.30;;;14.30;71.00;;;;;;5468969;26;19991;-37
2024/04/15 05:26:03;;;;;;;6.18;3.33;;;14.30;71.00;;;;;;5487780;26;20006;-38
2024/04/15 05:28:28;;;;;;;6.03;3.30;;;14.20;71.00;;;;;;5455769;26;19994;-39
2024/04/15 05:30:56;;;;;;;5.15;3.20;;;14.20;71.00;;;;;;5481473;26;19998;-37
2024/04/15 05:33:22;;;;;;;4.22;2.83;;;14.20;71.00;;;;;;5460467;26;19999;-38
2024/04/15 05:35:48;;;;;;;6.60;3.03;;;14.20;71.00;;;;;;5471775;26;19999;-39
2024/04/15 05:38:14;;;;;;;6.20;3.10;;;14.20;71.10;;;;;;5482051;26;20006;-38
2024/04/15 05:40:40;;;;;;;5.75;3.13;;;14.10;71.00;;;;;;5486918;26;20008;-40
2024/04/15 05:43:10;;;;;;;6.15;3.13;;;14.10;71.00;;;;;;5480312;26;20002;-40
2024/04/15 05:45:36;;;;;;;5.05;2.90;;;14.10;71.10;;;;;;5475142;26;20010;-39
2024/04/15 05:48:03;;;;;;;6.10;2.95;;;14.10;71.10;;;;;;5475383;26;20390;-40
2024/04/15 05:50:29;;;;;;;5.20;2.90;;;14.10;71.10;;;;;;5469167;26;20079;-39
2024/04/15 05:52:55;;;;;;;6.63;3.13;;;14.10;71.20;;;;;;5429114;26;20006;-40
2024/04/15 05:55:21;;;;;;;5.38;3.13;;;14.10;71.70;;;;;;5488376;26;20013;-40
2024/04/15 05:57:46;;;;;;;6.15;3.00;;;14.10;71.10;;;;;;5468455;26;19999;-40
2024/04/15 06:00:13;;;;;;;4.68;2.72;;;14.10;71.10;;;;;;5473768;26;20013;-39
2024/04/15 06:02:40;;;;;;;5.40;2.80;;;14.00;71.10;;;;;;5474953;26;20007;-39
2024/04/15 06:05:06;;;;;;;4.80;2.67;;;14.00;71.10;;;;;;5462393;26;20003;-41
2024/04/15 06:07:32;;;;;;;6.25;3.40;;;14.00;71.10;;;;;;5481134;26;20002;-40
2024/04/15 06:09:58;;;;;;;4.60;2.83;;;14.00;71.10;;;;;;5483110;26;19998;-44
2024/04/15 06:12:24;;;;;;;4.95;2.70;;;14.00;71.10;;;;;;5476376;26;20010;-37
2024/04/15 06:14:50;;;;;;;3.78;2.63;;;14.00;71.20;;;;;;5464464;26;20085;-39
2024/04/15 06:17:18;;;;;;;4.32;2.72;;;14.00;71.20;;;;;;5464793;26;20010;-38
2024/04/15 06:19:44;;;;;;;5.53;2.75;;;14.00;71.20;;;;;;5461706;26;19994;-38
2024/04/15 06:22:09;;;;;;;5.10;2.40;;;14.00;71.20;;;;;;5483732;26;20047;-38
2024/04/15 06:24:35;;;;;;;4.10;2.60;;;14.00;71.20;;;;;;5460765;26;20002;-38
2024/04/15 06:27:01;;;;;;;5.50;2.55;;;14.00;71.20;;;;;;5465745;26;20075;-38
2024/04/15 06:29:27;;;;;;;5.18;2.50;;;14.00;71.20;;;;;;5481993;26;20071;-38
2024/04/15 06:31:53;;;;;;;4.18;2.40;;;14.00;71.20;;;;;;5471927;26;20097;-38
2024/04/15 06:34:21;;;;;;;3.50;2.30;;;14.00;71.90;;;;;;5473480;26;20050;-38
2024/04/15 06:36:47;;;;;;;3.80;2.70;;;14.00;71.20;;;;;;5470467;26;20466;-38
2024/04/15 06:39:14;;;;;;;4.40;2.50;;;14.00;71.20;;;;;;5463388;26;20002;-38
2024/04/15 06:41:40;;;;;;;5.22;2.83;;;14.00;71.20;;;;;;5464813;26;20057;-38
2024/04/15 06:44:05;;;;;;;4.65;2.53;;;13.90;71.20;;;;;;5470633;26;20010;-38
2024/04/15 06:46:31;;;;;;;5.15;2.53;;;14.00;71.20;;;;;;5464582;26;20002;-38
2024/04/15 06:48:58;;;;;;;4.80;2.78;;;13.90;71.20;;;;;;5470910;26;20043;-38
2024/04/15 06:51:24;;;;;;;5.80;2.70;;;13.90;71.20;;;;;;5481107;26;19998;-38
2024/04/15 06:53:49;;;;;;;4.25;2.50;;;14.00;71.30;;;;;;5469239;26;20009;-38
2024/04/15 06:56:16;;;;;;;5.22;2.60;;;13.90;71.20;;;;;;5480602;26;19999;-38
2024/04/15 06:58:42;;;;;;;5.38;2.63;;;13.90;71.20;;;;;;5463044;26;20002;-39
2024/04/15 07:01:08;;;;;;;4.10;2.47;;;13.90;71.30;;;;;;5486001;26;20158;-41
2024/04/15 07:03:34;;;;;;;3.97;2.50;;;13.90;71.30;;;;;;5477964;26;20002;-39
2024/04/15 07:06:00;;;;;;;4.65;2.65;;;13.90;71.30;;;;;;5478395;26;19999;-39
2024/04/15 07:08:26;;;;;;;4.82;2.40;;;13.90;71.30;;;;;;5476183;26;19994;-39
2024/04/15 07:10:52;;;;;;;5.25;2.65;;;13.90;71.30;;;;;;5467440;26;20289;-39
2024/04/15 07:13:18;;;;;;;4.03;2.28;;;14.00;71.30;;;;;;5466581;26;20002;-39
2024/04/15 07:15:44;;;;;;;5.00;2.53;;;13.90;71.30;;;;;;5465159;26;19994;-39
2024/04/15 07:18:11;;;;;;;3.95;2.13;;;13.90;71.30;;;;;;5471039;26;20003;-39
2024/04/15 07:20:37;;;;;;;4.45;2.40;;;13.90;71.30;;;;;;5482176;26;20047;-39
2024/04/15 07:23:03;;;;;;;4.22;2.40;;;13.90;71.30;;;;;;5485107;26;20360;-39
2024/04/15 07:25:29;;;;;;;3.58;2.30;;;13.90;71.30;;;;;;5491839;26;20030;-39
2024/04/15 07:27:55;;;;;;;3.70;2.15;;;13.90;71.30;;;;;;5461534;26;20002;-39
2024/04/15 07:30:20;;;;;;;3.95;2.38;;;14.00;71.40;;;;;;5458597;26;19995;-39
2024/04/15 07:32:52;;;;;;;4.00;2.28;;;14.00;71.40;;;;;;5479256;26;20514;-39
2024/04/15 07:35:18;;;;;;;5.22;2.47;;;14.00;71.40;;;;;;5476144;26;20476;-38
2024/04/15 07:37:45;;;;;;;4.63;2.33;;;14.00;71.40;;;;;;5478204;26;20043;-39
2024/04/15 07:40:11;;;;;;;3.40;2.30;;;14.00;71.30;;;;;;5460550;26;19999;-39
2024/04/15 07:42:39;;;;;;;3.45;1.98;;;14.00;71.40;;;;;;5475397;26;20003;-39
2024/04/15 07:45:06;;;;;;;5.00;2.67;;;14.00;71.40;;;;;;5454884;26;19999;-39
2024/04/15 07:47:31;;;;;;;4.43;2.42;;;14.00;71.40;;;;;;5456155;26;20469;-39
2024/04/15 07:49:57;;;;;;;4.63;2.45;;;14.00;71.30;;;;;;5464279;26;20002;-39
2024/04/15 07:52:23;;;;;;;3.47;2.10;;;14.10;71.40;;;;;;5485274;26;20009;-39
2024/04/15 07:54:49;;;;;;;4.15;2.50;;;14.10;71.30;;;;;;5460789;26;19998;-43
2024/04/15 07:57:14;;;;;;;5.63;2.33;;;14.10;71.30;;;;;;5487423;26;20013;-39
2024/04/15 07:59:41;;;;;;;4.00;2.28;;;14.10;71.30;;;;;;5471186;26;19998;-39
2024/04/15 08:02:08;;;;;;;4.78;2.30;;;14.20;71.30;;;;;;5490435;26;20030;-39
2024/04/15 08:04:35;;;;;;;5.53;2.45;;;14.20;71.30;;;;;;5482248;26;20002;-39
2024/04/15 08:07:01;;;;;;;4.63;2.20;;;14.20;71.30;;;;;;5481065;26;19994;-43
2024/04/15 08:09:27;;;;;;;4.22;2.40;;;14.30;71.30;;;;;;5484918;26;19999;-39
2024/04/15 08:11:53;;;;;;;5.82;2.40;;;14.30;71.20;;;;;;5473729;26;19995;-39
2024/04/15 08:14:21;;;;;;;3.83;2.30;;;14.30;71.20;;;;;;5472048;26;20398;-39
2024/04/15 08:16:46;;;;;;;4.88;2.25;;;14.40;71.20;;;;;;5487782;26;20027;-40
2024/04/15 08:19:12;;;;;;;3.78;2.00;;;14.30;71.10;;;;;;5482347;26;20514;-39
2024/04/15 08:21:38;;;;;;;4.57;2.25;;;14.40;71.10;;;;;;5483735;26;20006;-39
2024/04/15 08:24:04;;;;;;;5.38;2.33;;;14.40;71.10;;;;;;5435168;26;20002;-38
2024/04/15 08:26:30;;;;;;;4.28;2.25;;;14.50;71.20;;;;;;5481843;26;20014;-38
2024/04/15 08:28:56;;;;;;;4.47;2.50;;;14.50;71.10;;;;;;5457768;26;20521;-39
2024/04/15 08:31:21;;;;;;;3.20;2.17;;;14.50;71.10;;;;;;5489488;26;20001;-42
2024/04/15 08:33:47;;;;;;;3.88;2.45;;;14.50;71.00;;;;;;5469656;26;20011;-38
2024/04/15 08:36:15;;;;;;;5.22;2.42;;;14.60;71.00;;;;;;5479103;26;20003;-38
2024/04/15 08:38:44;;;;;;;4.43;2.17;;;14.60;70.90;;;;;;5466279;26;19995;-38
2024/04/15 08:41:19;;;;;;;4.75;2.30;;;14.60;70.80;;;;;;5482420;26;20013;-38
2024/04/15 08:43:46;;;;;;;4.10;2.63;;;14.70;70.90;;;;;;5459583;26;20357;-38
2024/04/15 08:46:22;;;;;;;5.07;2.60;;;14.70;70.80;;;;;;5487457;26;19998;-38
2024/04/15 08:48:49;;;;;;;5.28;2.58;;;14.70;70.80;;;;;;5474696;26;20048;-38
2024/04/15 08:51:16;;;;;;;4.28;2.80;;;14.80;70.70;;;;;;5479907;26;20013;-37
2024/04/15 08:53:41;;;;;;;5.18;2.70;;;14.80;70.70;;;;;;5482455;26;20127;-38
2024/04/15 08:56:10;;;;;;;4.82;2.80;;;14.80;70.60;;;;;;5474587;26;20445;-39
2024/04/15 08:58:37;;;;;;;5.35;2.97;;;14.90;70.70;;;;;;5472054;26;20013;-39
2024/04/15 09:01:05;;;;;;;4.25;2.70;;;14.90;70.70;;;;;;5478474;26;19995;-39
2024/04/15 09:03:31;;;;;;;4.65;2.60;;;14.90;70.70;;;;;;5463006;26;20052;-39
2024/04/15 09:05:57;;;;;;;4.55;2.80;;;15.00;70.70;;;;;;5482278;26;19998;-39
2024/04/15 09:08:23;;;;;;;4.00;2.63;;;15.00;70.60;;;;;;5478365;26;20002;-39
2024/04/15 09:10:48;;;;;;;4.05;2.65;;;15.10;70.60;;;;;;5474248;26;20048;-39
2024/04/15 09:13:15;;;;;;;5.28;2.78;;;15.10;70.60;;;;;;5486366;26;19995;-39
2024/04/15 09:15:41;;;;;;;4.97;2.72;;;15.10;70.60;;;;;;5471388;26;20044;-39
2024/04/15 09:18:09;;;;;;;3.80;2.55;;;15.10;70.50;;;;;;5463389;26;19998;-39
2024/04/15 09:20:36;;;;;;;4.90;3.00;;;15.20;70.50;;;;;;5481167;26;19995;-38
2024/04/15 09:23:08;;;;;;;4.47;2.42;;;15.20;70.40;;;;;;5460305;26;20030;-40
2024/04/15 09:25:34;;;;;;;4.18;2.33;;;15.20;70.40;;;;;;5484789;26;20009;-38
2024/04/15 09:28:04;;;;;;;4.13;2.30;;;15.30;70.40;;;;;;5492286;26;20006;-39
2024/04/15 09:30:31;;;;;;;3.95;2.40;;;15.30;70.30;;;;;;5473435;26;20003;-39
2024/04/15 09:32:58;;;;;;;3.65;2.28;;;15.30;70.20;;;;;;5477348;26;20518;-38
2024/04/15 09:35:26;;;;;;;6.40;2.47;;;15.40;70.20;;;;;;5477715;26;20100;-39
2024/04/15 09:37:56;;;;;;;3.15;2.20;;;15.40;70.20;;;;;;5473302;26;20007;-39
2024/04/15 09:40:25;;;;;;;5.03;2.30;;;15.40;70.20;;;;;;5460338;26;20529;-38
2024/04/15 09:42:52;;;;;;;5.22;2.45;;;15.50;70.20;;;;;;5457941;26;20044;-38
2024/04/15 09:45:19;;;;;;;3.42;2.47;;;15.50;70.00;;;;;;5460472;26;19995;-39
2024/04/15 09:47:46;;;;;;;5.38;2.40;;;15.60;70.00;;;;;;5475995;26;20030;-38
2024/04/15 09:50:12;;;;;;;5.22;2.22;;;15.60;70.00;;;;;;5485409;26;19998;-39
2024/04/15 09:52:42;;;;;;;4.15;2.30;;;15.70;70.00;;;;;;5462815;26;20023;-38
2024/04/15 09:55:09;;;;;;;4.45;2.33;;;15.70;69.90;;;;;;5485188;26;19998;-38
2024/04/15 09:57:42;;;;;;;3.28;2.10;;;15.80;69.90;;;;;;5472877;26;20013;-39
2024/04/15 10:00:13;;;;;;;3.10;2.00;;;15.80;69.90;;;;;;5468620;26;20002;-38
2024/04/15 10:02:52;;;;;;;2.47;2.05;;;15.90;69.90;;;;;;5469437;26;20067;-38
2024/04/15 10:05:26;;;;;;;2.60;2.00;;;15.90;69.80;;;;;;5449891;26;20014;-39
2024/04/15 10:07:58;;;;;;;3.47;1.80;;;16.00;69.80;;;;;;5469113;26;20327;-38
2024/04/15 10:10:27;;;;;;;3.95;2.13;;;16.00;69.70;;;;;;5465262;26;20622;-40
2024/04/15 10:12:55;;;;;;;3.55;2.20;;;16.00;69.60;;;;;;5461204;26;20011;-40
2024/04/15 10:15:22;;;;;;;3.42;1.88;;;16.10;69.60;;;;;;5474865;26;19999;-37
2024/04/15 10:17:59;;;;;;;3.22;1.90;;;16.10;69.60;;;;;;5439999;26;20018;-38
2024/04/15 10:20:39;;;;;;;3.92;1.90;;;16.20;69.50;;;;;;5481543;26;20544;-37
2024/04/15 10:23:15;;;;;;;2.38;1.80;;;16.20;69.50;;;;;;5470949;26;20010;-38
2024/04/15 10:25:42;;;;;;;2.50;1.63;;;16.20;69.40;;;;;;5464433;26;19998;-38
2024/04/15 10:28:09;;;;;;;3.80;1.90;;;16.20;69.30;;;;;;5485471;26;20013;-38
2024/04/15 10:30:36;;;;;;;3.80;2.00;;;16.20;69.20;;;;;;5472457;26;20009;-39
2024/04/15 10:33:05;;;;;;;2.85;1.70;;;16.20;69.20;;;;;;5483356;26;20038;-39
2024/04/15 10:35:39;;;;;;;2.95;1.70;;;16.30;69.90;;;;;;5488776;26;20085;-39
2024/04/15 10:38:06;;;;;;;3.85;1.88;;;16.30;69.20;;;;;;5486783;26;20001;-38
2024/04/15 10:40:35;;;;;;;3.85;1.95;;;16.30;69.10;;;;;;5492721;26;19998;-39
2024/04/15 10:43:04;;;;;;;3.92;1.88;;;16.40;69.10;;;;;;5468401;26;20441;-39
2024/04/15 10:45:31;;;;;;;5.00;1.80;;;16.40;69.00;;;;;;5485752;26;20002;-39
2024/04/15 10:47:58;;;;;;;3.53;1.63;;;16.40;69.10;;;;;;5477615;26;20013;-39
2024/04/15 10:50:25;;;;;;;2.67;1.70;;;16.40;69.00;;;;;;5473923;26;20013;-40
2024/04/15 10:52:51;;;;;;;3.28;1.67;;;16.40;69.10;;;;;;5484483;26;20005;-38
2024/04/15 10:55:19;;;;;;;2.85;1.60;;;16.50;69.10;;;;;;5485153;26;20013;-38
2024/04/15 10:57:45;;;;;;;4.15;1.70;;;16.50;69.00;;;;;;5481869;26;19998;-38
2024/04/15 11:00:13;;;;;;;3.90;1.80;;;16.50;69.00;;;;;;5479095;26;20366;-39
2024/04/15 11:02:52;;;;;;;2.70;1.40;;;16.50;68.90;;;;;;5484221;26;20025;-39
2024/04/15 11:05:21;;;;;;;2.72;1.30;;;16.60;69.00;;;;;;5489093;26;19994;-39
2024/04/15 11:07:47;;;;;;;3.65;1.60;;;16.50;68.80;;;;;;5472961;26;20011;-39
2024/04/15 11:10:14;;;;;;;3.33;1.48;;;16.50;68.80;;;;;;5471650;26;20014;-39
2024/04/15 11:12:41;;;;;;;2.88;1.50;;;16.50;68.80;;;;;;5490207;26;19998;-39
2024/04/15 11:15:15;;;;;;;3.13;1.60;;;16.50;68.80;;;;;;5474446;26;20046;-39
2024/04/15 11:17:55;;;;;;;2.97;1.65;;;16.50;68.80;;;;;;5480992;26;20497;-39
2024/04/15 11:20:22;;;;;;;2.03;1.60;;;16.60;68.90;;;;;;5481353;26;20043;-37
2024/04/15 11:22:48;;;;;;;3.20;1.65;;;16.60;68.90;;;;;;5471750;26;20002;-39
2024/04/15 11:25:15;;;;;;;3.58;1.77;;;16.50;68.90;;;;;;5461922;26;20003;-39
2024/04/15 11:27:54;;;;;;;2.60;1.45;;;16.50;68.90;;;;;;5465801;26;20026;-40
2024/04/15 11:30:28;;;;;;;2.60;1.77;;;16.60;69.00;;;;;;5472300;26;19994;-39
2024/04/15 11:33:00;;;;;;;1.98;1.52;;;16.50;69.00;;;;;;5487626;26;20257;-39
2024/04/15 11:35:26;;;;;;;2.25;1.60;;;16.50;69.00;;;;;;5488568;26;20008;-39
2024/04/15 11:37:53;;;;;;;3.05;1.77;;;16.50;69.00;;;;;;5462113;26;19998;-38
2024/04/15 11:40:19;;;;;;;3.13;1.48;;;16.50;69.10;;;;;;5459304;26;20018;-38
2024/04/15 11:42:45;;;;;;;2.70;1.50;;;16.50;69.10;;;;;;5477868;26;20006;-38
2024/04/15 11:45:13;;;;;;;3.10;1.60;;;16.50;69.10;;;;;;5489616;26;20010;-38
2024/04/15 11:47:39;;;;;;;2.75;1.63;;;16.50;69.20;;;;;;5484850;26;20022;-39
2024/04/15 11:50:05;;;;;;;3.13;1.70;;;16.40;69.20;;;;;;5491995;26;20001;-39
2024/04/15 11:52:31;;;;;;;3.63;1.60;;;16.50;69.20;;;;;;5457076;26;19995;-39
2024/04/15 11:54:57;;;;;;;2.67;1.45;;;16.50;69.30;;;;;;5473846;26;20356;-39
2024/04/15 11:57:22;;;;;;;2.75;1.45;;;16.50;69.30;;;;;;5457492;26;19995;-39
2024/04/15 11:59:48;;;;;;;4.10;1.65;;;16.40;69.30;;;;;;5477784;26;20002;-40
2024/04/15 12:02:14;;;;;;;2.75;1.70;;;16.40;69.30;;;;;;5466922;26;20018;-41
2024/04/15 12:04:47;;;;;;;3.13;1.63;;;16.40;69.40;;;;;;5487777;26;20025;-40
2024/04/15 12:07:13;;;;;;;4.20;1.73;;;16.40;69.40;;;;;;5465563;26;20064;-40
2024/04/15 12:09:41;;;;;;;2.05;1.30;;;16.40;69.40;;;;;;5489499;26;20002;-40
2024/04/15 12:12:06;;;;;;;3.67;1.50;;;16.40;69.50;;;;;;5473157;26;20011;-39
2024/04/15 12:14:32;;;;;;;2.63;1.38;;;16.40;69.50;;;;;;5460966;26;20075;-39
2024/04/15 12:16:58;;;;;;;2.33;1.40;;;16.40;69.50;;;;;;5477953;26;19994;-39
2024/04/15 12:19:24;;;;;;;3.15;1.50;;;16.40;69.50;;;;;;5456238;26;20006;-39
2024/04/15 12:21:50;;;;;;;1.83;1.20;;;16.40;69.60;;;;;;5471233;26;20033;-39
2024/04/15 12:24:16;;;;;;;2.08;1.40;;;16.40;69.60;;;;;;5473420;26;20446;-38
2024/04/15 12:26:42;;;;;;;2.97;1.50;;;16.30;69.60;;;;;;5489318;26;20614;-39
2024/04/15 12:29:08;;;;;;;4.38;1.55;;;16.30;69.70;;;;;;5486654;26;20006;-39
2024/04/15 12:31:34;;;;;;;2.50;1.35;;;16.30;69.70;;;;;;5487397;26;20341;-39
2024/04/15 12:33:59;;;;;;;4.13;1.60;;;16.30;69.80;;;;;;5463586;26;20009;-39
2024/04/15 12:36:25;;;;;;;3.72;1.63;;;16.30;69.80;;;;;;5457248;26;19999;-39
2024/04/15 12:38:51;;;;;;;2.63;1.40;;;16.30;69.80;;;;;;5490525;26;20334;-39
2024/04/15 12:41:17;;;;;;;3.45;1.45;;;16.30;69.80;;;;;;5460825;26;20071;-39
2024/04/15 12:43:42;;;;;;;3.72;1.60;;;16.30;69.90;;;;;;5464886;26;20389;-40
2024/04/15 12:46:08;;;;;;;1.88;1.20;;;16.40;69.90;;;;;;5453977;26;20013;-39